Time;durP1;ratioP1;P1;durP2;ratioP2;P2;SDS_P1;SDS_P2;PMS_P1;PMS_P2;Temp;Humidity;BMP_temperature;BMP_pressure;BME280_temperature;BME280_humidity;BME280_pressure;Samples;Min_cycle;Max_cycle;Signal;HPM_P1;HPM_P2
2022/05/27 00:02:14;;;;;;;5.53;1.58;;;;;;;21.13;44.61;99431.72;5092734;28;20036;-47
2022/05/27 00:04:40;;;;;;;2.13;1.30;;;;;;;21.11;44.91;99428.50;5091193;28;20024;-46
2022/05/27 00:07:05;;;;;;;3.75;1.27;;;;;;;21.19;44.95;99436.06;5092384;28;20024;-46
2022/05/27 00:09:31;;;;;;;4.13;1.42;;;;;;;21.18;45.01;99433.63;5091042;28;20035;-47
2022/05/27 00:11:57;;;;;;;4.38;1.13;;;;;;;21.17;44.64;99435.50;5090928;28;20058;-46
2022/05/27 00:14:22;;;;;;;5.47;1.30;;;;;;;21.11;44.98;99441.84;5092286;28;20080;-46
2022/05/27 00:16:48;;;;;;;4.35;1.40;;;;;;;21.05;45.01;99440.97;5090909;28;20028;-47
2022/05/27 00:19:14;;;;;;;2.58;1.10;;;;;;;21.04;45.01;99438.56;5092248;28;20024;-47
2022/05/27 00:21:40;;;;;;;4.72;1.00;;;;;;;20.95;45.45;99436.34;5092150;28;20090;-47
2022/05/27 00:24:06;;;;;;;7.60;1.60;;;;;;;20.87;45.52;99430.66;5092159;28;20016;-47
2022/05/27 00:26:32;;;;;;;7.70;1.52;;;;;;;20.85;45.58;99443.44;5090836;28;20039;-47
2022/05/27 00:28:57;;;;;;;3.70;1.20;;;;;;;20.85;45.78;99430.88;5092109;28;20028;-47
2022/05/27 00:31:23;;;;;;;4.60;1.30;;;;;;;20.80;45.74;99428.16;5091770;28;20048;-47
2022/05/27 00:33:49;;;;;;;7.45;1.30;;;;;;;20.83;45.88;99427.66;5092039;28;20027;-47
2022/05/27 00:36:15;;;;;;;5.60;1.45;;;;;;;20.84;45.79;99429.25;5090660;28;20077;-47
2022/05/27 00:38:43;;;;;;;2.63;1.10;;;;;;;20.67;46.08;99417.88;5073853;28;20024;-47
2022/05/27 00:41:11;;;;;;;6.78;1.20;;;;;;;20.54;46.38;99422.50;5090676;28;20024;-47
2022/05/27 00:43:37;;;;;;;4.20;1.20;;;;;;;20.58;46.38;99424.66;5091977;28;20028;-47
2022/05/27 00:46:16;;;;;;;8.15;1.27;;;;;;;20.54;46.71;99419.81;5091878;28;20405;-47
2022/05/27 00:48:45;;;;;;;7.78;1.27;;;;;;;20.59;46.49;99415.63;5091904;28;20086;-47
2022/05/27 00:51:25;;;;;;;3.80;1.33;;;;;;;20.72;46.43;99404.56;5091677;28;20081;-47
2022/05/27 00:54:09;;;;;;;7.90;1.77;;;;;;;20.89;46.09;99413.31;5091869;28;20024;-46
2022/05/27 00:56:39;;;;;;;6.85;1.55;;;;;;;20.92;45.81;99407.47;5091871;28;20401;-48
2022/05/27 00:59:27;;;;;;;5.13;1.25;;;;;;;20.85;45.96;99412.22;5091779;28;20024;-46
2022/05/27 01:01:53;;;;;;;8.07;1.45;;;;;;;20.91;45.88;99415.75;5089856;28;20032;-47
2022/05/27 01:04:20;;;;;;;5.20;1.23;;;;;;;20.92;45.85;99412.00;5093748;28;20020;-48
2022/05/27 01:06:46;;;;;;;6.85;1.73;;;;;;;20.78;46.08;99408.91;5095852;28;20105;-46
2022/05/27 01:09:13;;;;;;;12.90;1.63;;;;;;;20.70;46.15;99409.34;5095835;28;20501;-46
2022/05/27 01:11:57;;;;;;;6.18;1.98;;;;;;;20.54;46.69;99409.16;5094432;28;20026;-47
2022/05/27 01:14:58;;;;;;;5.63;1.50;;;;;;;20.55;46.61;99409.97;5095845;28;20059;-47
2022/05/27 01:17:33;;;;;;;5.00;1.63;;;;;;;20.51;46.74;99403.50;5094496;28;20466;-47
2022/05/27 01:20:19;;;;;;;7.70;1.55;;;;;;;20.53;46.82;99396.88;5095720;28;20038;-47
2022/05/27 01:23:09;;;;;;;4.05;1.20;;;;;;;20.78;46.57;99392.91;5094338;28;20081;-47
2022/05/27 01:25:56;;;;;;;3.53;0.95;;;;;;;20.95;46.06;99396.31;5095595;28;20028;-47
2022/05/27 01:28:59;;;;;;;8.23;1.95;;;;;;;21.03;45.81;99395.06;5094128;28;20036;-47
2022/05/27 01:31:44;;;;;;;5.97;1.30;;;;;;;21.26;45.21;99387.78;5093419;28;20127;-47
2022/05/27 01:34:33;;;;;;;3.35;1.20;;;;;;;21.26;45.29;99388.59;5095426;28;20027;-47
2022/05/27 01:37:05;;;;;;;6.15;1.33;;;;;;;21.26;45.25;99387.78;5095335;28;20505;-47
2022/05/27 01:39:47;;;;;;;7.38;1.77;;;;;;;21.23;45.42;99383.78;5093923;28;20509;-47
2022/05/27 01:42:21;;;;;;;7.53;1.42;;;;;;;21.17;45.33;99390.13;5095193;28;20039;-48
2022/05/27 01:45:01;;;;;;;4.28;1.30;;;;;;;21.24;45.39;99395.25;5093874;28;20124;-47
2022/05/27 01:47:42;;;;;;;4.82;1.15;;;;;;;21.08;45.46;99388.97;5095150;28;20032;-47
2022/05/27 01:50:16;;;;;;;4.03;1.35;;;;;;;20.84;45.95;99385.78;5095089;28;20099;-47
2022/05/27 01:52:58;;;;;;;5.43;1.20;;;;;;;20.61;46.38;99387.66;5094900;28;20493;-47
2022/05/27 01:55:48;;;;;;;9.35;1.52;;;;;;;20.45;47.04;99389.31;5093935;28;20038;-47
2022/05/27 01:58:25;;;;;;;8.82;1.80;;;;;;;20.50;47.06;99391.22;5073219;28;20032;-47
2022/05/27 02:00:51;;;;;;;7.15;1.60;;;;;;;20.44;46.77;99394.88;5094849;28;20039;-46
2022/05/27 02:03:37;;;;;;;4.45;1.35;;;;;;;20.24;47.41;99398.06;5094749;28;20024;-47
2022/05/27 02:06:07;;;;;;;5.35;1.38;;;;;;;19.97;47.74;99401.44;5094741;28;20043;-46
2022/05/27 02:08:45;;;;;;;6.43;1.70;;;;;;;19.95;48.31;99392.88;5094802;28;20112;-46
2022/05/27 02:11:16;;;;;;;7.53;1.27;;;;;;;20.05;48.17;99400.22;5094648;28;20031;-47
2022/05/27 02:14:09;;;;;;;8.32;1.70;;;;;;;20.13;48.09;99392.63;5094655;28;20028;-46
2022/05/27 02:16:38;;;;;;;7.15;1.80;;;;;;;20.11;48.08;99400.03;5092334;28;20043;-47
2022/05/27 02:19:33;;;;;;;8.90;2.30;;;;;;;20.12;48.47;99400.84;5094482;28;20485;-47
2022/05/27 02:22:20;;;;;;;8.70;1.70;;;;;;;20.25;48.04;99400.50;5094439;28;20086;-47
2022/05/27 02:24:55;;;;;;;5.18;1.40;;;;;;;20.38;47.79;99396.66;5093064;28;20457;-47
2022/05/27 02:27:34;;;;;;;3.33;1.30;;;;;;;20.46;47.58;99395.44;5094414;28;20020;-46
2022/05/27 02:30:08;;;;;;;12.73;2.65;;;;;;;20.57;47.64;99404.38;5094043;28;20107;-47
2022/05/27 02:35:07;;;;;;;14.68;2.13;;;;;;;20.76;47.00;99400.34;5092903;28;20505;-47
2022/05/27 02:35:38;;;;;;;4.50;1.50;;;;;;;20.67;46.92;99396.53;5094134;28;20032;-47
2022/05/27 02:38:06;;;;;;;9.98;1.85;;;;;;;20.44;47.48;99401.00;5094150;28;20012;-46
2022/05/27 02:40:46;;;;;;;11.00;2.10;;;;;;;20.52;47.66;99395.28;5094105;28;20042;-47
2022/05/27 02:43:20;;;;;;;10.73;2.22;;;;;;;20.55;47.70;99392.09;5094104;28;20016;-47
2022/05/27 02:46:02;;;;;;;5.83;1.63;;;;;;;20.40;47.62;99396.41;5092698;28;20036;-47
2022/05/27 02:48:36;;;;;;;10.55;2.17;;;;;;;20.34;48.01;99404.38;5093937;28;20273;-47
2022/05/27 02:51:23;;;;;;;10.93;1.48;;;;;;;20.35;47.95;99402.50;5093822;28;20528;-48
2022/05/27 02:54:04;;;;;;;9.77;2.00;;;;;;;20.31;47.90;99406.72;5093852;28;20039;-46
2022/05/27 02:56:42;;;;;;;6.15;1.63;;;;;;;20.31;47.91;99399.53;5093802;28;20028;-47
2022/05/27 02:59:11;;;;;;;11.98;1.80;;;;;;;20.30;47.97;99394.44;5092485;28;20036;-47
2022/05/27 03:01:37;;;;;;;4.65;1.52;;;;;;;20.34;47.83;99400.88;5093722;28;20366;-47
2022/05/27 03:04:04;;;;;;;5.50;1.70;;;;;;;20.31;48.14;99396.06;5093589;28;20430;-47
2022/05/27 03:07:01;;;;;;;8.70;2.13;;;;;;;20.29;48.18;99387.50;5092184;28;20035;-47
2022/05/27 03:09:56;;;;;;;13.95;2.33;;;;;;;20.42;47.77;99388.97;5093157;28;20505;-47
2022/05/27 03:12:34;;;;;;;7.70;1.75;;;;;;;20.35;47.87;99389.19;5065682;28;20118;-47
2022/05/27 03:15:23;;;;;;;5.13;1.40;;;;;;;20.35;47.98;99389.19;5093465;28;20073;-47
2022/05/27 03:18:16;;;;;;;13.43;2.60;;;;;;;20.25;48.11;99383.72;5093354;28;20044;-46
2022/05/27 03:20:58;;;;;;;9.27;1.70;;;;;;;20.15;48.21;99381.72;5093304;28;20063;-46
2022/05/27 03:23:45;;;;;;;6.38;2.78;;;;;;;20.03;48.26;99381.81;5093264;28;20024;-47
2022/05/27 03:26:21;;;;;;;10.43;6.40;;;;;;;19.85;48.74;99379.44;5093152;28;20024;-47
2022/05/27 03:29:12;;;;;;;12.98;6.18;;;;;;;19.76;49.13;99387.03;5093138;28;20046;-47
2022/05/27 03:32:07;;;;;;;10.27;3.78;;;;;;;19.77;49.16;99387.81;5091190;28;20043;-46
2022/05/27 03:34:41;;;;;;;5.13;1.88;;;;;;;19.97;48.82;99387.31;5073126;28;20036;-47
2022/05/27 03:37:34;;;;;;;5.43;1.80;;;;;;;20.01;48.67;99389.25;5091682;28;20513;-47
2022/05/27 03:40:20;;;;;;;7.18;2.35;;;;;;;20.11;48.59;99386.72;5092984;28;20040;-47
2022/05/27 03:42:48;;;;;;;3.38;1.48;;;;;;;20.20;48.23;99392.44;5093073;28;20390;-47
2022/05/27 03:45:17;;;;;;;10.20;1.83;;;;;;;20.26;48.29;99390.66;5092845;28;20028;-47
2022/05/27 03:47:44;;;;;;;15.80;2.70;;;;;;;20.29;48.14;99395.50;5093043;28;20020;-47
2022/05/27 03:50:17;;;;;;;10.25;2.05;;;;;;;20.35;48.14;99397.16;5091409;28;20039;-47
2022/05/27 03:52:47;;;;;;;6.25;1.33;;;;;;;20.48;47.73;99396.00;5091358;28;20024;-47
2022/05/27 03:55:16;;;;;;;8.40;2.08;;;;;;;20.50;47.74;99394.72;5092605;28;20028;-46
2022/05/27 03:57:42;;;;;;;9.45;1.60;;;;;;;20.41;47.83;99384.72;5091296;28;20028;-47
2022/05/27 04:00:10;;;;;;;10.40;2.25;;;;;;;20.41;47.67;99392.72;5092547;28;20519;-47
2022/05/27 04:02:36;;;;;;;9.73;1.90;;;;;;;20.32;47.82;99387.81;5092432;28;20024;-46
2022/05/27 04:05:04;;;;;;;6.65;2.17;;;;;;;20.32;47.90;99395.81;5092691;28;20059;-47
2022/05/27 04:07:30;;;;;;;7.85;1.75;;;;;;;20.40;48.08;99397.22;5092721;28;20107;-46
2022/05/27 04:09:58;;;;;;;10.32;2.17;;;;;;;20.53;47.72;99396.88;5092275;28;20111;-47
2022/05/27 04:12:25;;;;;;;6.10;1.45;;;;;;;20.38;47.74;99399.31;5092290;28;20111;-46
2022/05/27 04:14:51;;;;;;;4.30;1.70;;;;;;;20.11;48.15;99402.72;5091039;28;20039;-47
2022/05/27 04:17:32;;;;;;;12.32;3.05;;;;;;;19.94;48.65;99400.09;5092307;28;20099;-47
2022/05/27 04:20:08;;;;;;;5.93;1.50;;;;;;;19.88;48.97;99405.56;5092316;28;20039;-47
2022/05/27 04:22:34;;;;;;;12.75;2.10;;;;;;;19.88;48.77;99405.56;5090986;28;20028;-47
2022/05/27 04:25:00;;;;;;;4.75;1.70;;;;;;;19.91;48.92;99413.09;5092210;28;20070;-46
2022/05/27 04:27:27;;;;;;;5.78;1.42;;;;;;;19.92;49.06;99412.00;5092424;28;20496;-47
2022/05/27 04:29:53;;;;;;;7.75;1.90;;;;;;;20.48;48.18;99417.31;5090781;28;20127;-47
2022/05/27 04:32:25;;;;;;;6.97;1.75;;;;;;;21.51;46.08;99405.91;5091744;28;20102;-47
2022/05/27 04:34:54;;;;;;;9.02;2.00;;;;;;;22.40;44.04;99409.75;5092094;28;20051;-47
2022/05/27 04:37:22;;;;;;;11.65;2.15;;;;;;;22.93;42.63;99407.81;5090713;28;20028;-47
2022/05/27 04:39:49;;;;;;;9.25;1.83;;;;;;;23.36;41.78;99406.84;5090247;28;20513;-47
2022/05/27 04:42:15;;;;;;;9.00;1.92;;;;;;;23.80;40.61;99409.00;5090614;28;20043;-48
2022/05/27 04:44:40;;;;;;;8.45;1.67;;;;;;;23.97;40.03;99406.84;5090596;28;20036;-46
2022/05/27 04:47:07;;;;;;;9.35;2.00;;;;;;;24.02;40.02;99412.19;5091885;28;20095;-47
2022/05/27 04:52:22;;;;;;;12.10;2.28;;;;;;;24.44;39.32;99415.56;5091808;28;20093;-47
2022/05/27 04:54:48;;;;;;;9.80;2.08;;;;;;;24.61;38.67;99415.25;5092043;28;20031;-47
2022/05/27 04:57:18;;;;;;;7.20;1.60;;;;;;;24.86;38.23;99415.13;5090459;28;20036;-47
2022/05/27 04:59:46;;;;;;;7.95;1.60;;;;;;;25.43;37.33;99412.91;5091745;28;20016;-47
2022/05/27 05:02:16;;;;;;;7.93;1.73;;;;;;;26.04;36.13;99406.22;5091690;28;20036;-47
2022/05/27 05:04:42;;;;;;;6.15;1.42;;;;;;;26.38;35.19;99409.88;5091741;28;20038;-47
2022/05/27 05:07:09;;;;;;;6.75;1.88;;;;;;;26.71;34.79;99400.09;5091746;28;20571;-47
2022/05/27 05:09:37;;;;;;;8.55;1.83;;;;;;;27.21;33.55;99403.16;5091659;28;20444;-47
2022/05/27 05:12:04;;;;;;;7.10;1.80;;;;;;;27.77;32.99;99404.16;5091598;28;20028;-47
2022/05/27 05:14:30;;;;;;;7.78;1.60;;;;;;;28.05;32.33;99393.41;5090305;28;20428;-48
2022/05/27 05:16:56;;;;;;;11.05;2.53;;;;;;;28.47;31.24;99408.53;5090247;28;20043;-48
2022/05/27 05:19:22;;;;;;;13.95;2.28;;;;;;;28.88;31.09;99413.09;5091594;28;20020;-48
2022/05/27 05:21:48;;;;;;;6.68;1.83;;;;;;;29.20;30.58;99408.63;5090242;28;20028;-48
2022/05/27 05:24:14;;;;;;;8.70;2.35;;;;;;;29.77;29.69;99409.97;5090276;28;20383;-49
2022/05/27 05:26:40;;;;;;;6.57;1.88;;;;;;;29.87;29.22;99412.41;5090178;28;20080;-48
2022/05/27 05:29:06;;;;;;;14.70;3.40;;;;;;;30.24;29.09;99402.19;5091551;28;20405;-49
2022/05/27 05:31:33;;;;;;;14.18;2.20;;;;;;;30.68;28.45;99405.84;5091069;28;20044;-49
2022/05/27 05:33:59;;;;;;;7.82;1.83;;;;;;;31.12;27.52;99414.84;5091523;28;20490;-48
2022/05/27 05:36:26;;;;;;;9.82;2.20;;;;;;;31.19;27.42;99417.88;5091474;28;20027;-47
2022/05/27 05:38:52;;;;;;;6.97;2.05;;;;;;;31.26;26.95;99418.16;5091626;28;20410;-48
2022/05/27 05:41:30;;;;;;;6.60;1.90;;;;;;;31.49;27.11;99415.28;5090076;28;20028;-48
2022/05/27 05:43:56;;;;;;;15.00;1.90;;;;;;;31.90;26.23;99407.72;5091424;28;20153;-50
2022/05/27 05:46:24;;;;;;;11.73;2.42;;;;;;;32.13;26.22;99409.06;5091236;28;20024;-49
2022/05/27 05:48:49;;;;;;;12.07;2.33;;;;;;;32.12;25.79;99409.41;5091326;28;20020;-49
2022/05/27 05:51:16;;;;;;;5.60;1.55;;;;;;;32.04;26.00;99417.25;5091584;28;20523;-49
2022/05/27 05:53:42;;;;;;;7.32;1.80;;;;;;;32.47;25.46;99423.59;5095030;28;20059;-49
2022/05/27 05:56:08;;;;;;;9.77;2.50;;;;;;;32.60;24.93;99424.53;5094937;28;20512;-49
2022/05/27 05:58:35;;;;;;;7.65;2.03;;;;;;;32.72;25.02;99426.50;5093558;28;20073;-49
2022/05/27 06:01:00;;;;;;;6.55;1.58;;;;;;;33.22;24.50;99415.59;5093592;28;20500;-49
2022/05/27 06:03:26;;;;;;;11.77;3.78;;;;;;;33.32;24.03;99410.84;5094868;28;20095;-49
2022/05/27 06:05:52;;;;;;;8.30;2.08;;;;;;;33.43;23.87;99417.47;5094800;28;20020;-50
2022/05/27 06:08:21;;;;;;;15.07;2.53;;;;;;;33.73;23.55;99418.16;5094809;28;20031;-49
2022/05/27 06:10:48;;;;;;;6.70;2.13;;;;;;;34.02;23.52;99422.59;5094718;28;20056;-49
2022/05/27 06:13:14;;;;;;;11.23;2.30;;;;;;;33.89;23.33;99417.50;5094884;28;20081;-49
2022/05/27 06:15:41;;;;;;;8.15;2.03;;;;;;;34.24;23.23;99422.53;5094562;28;20052;-48
2022/05/27 06:18:07;;;;;;;7.78;2.30;;;;;;;34.57;22.74;99414.22;5094587;28;20107;-49
2022/05/27 06:20:35;;;;;;;8.05;2.53;;;;;;;34.69;22.41;99411.50;5093151;28;20020;-50
2022/05/27 06:23:05;;;;;;;7.72;2.22;;;;;;;34.75;22.37;99415.59;5093411;28;20039;-50
2022/05/27 06:25:31;;;;;;;7.20;2.05;;;;;;;35.01;22.27;99417.09;5093050;28;20050;-50
2022/05/27 06:36:12;;;;;;;6.95;2.20;;;;;;;36.03;21.11;99419.44;5094476;28;20441;-49
2022/05/27 06:38:38;;;;;;;8.60;2.70;;;;;;;36.31;20.88;99422.06;5094114;28;20024;-49
2022/05/27 06:41:04;;;;;;;8.73;2.45;;;;;;;36.00;21.02;99428.34;5094049;28;20089;-50
2022/05/27 06:43:31;;;;;;;8.95;2.58;;;;;;;36.16;21.00;99426.44;5093935;28;20042;-50
2022/05/27 06:45:59;;;;;;;22.38;3.17;;;;;;;36.04;21.06;99429.22;5093986;28;20077;-49
2022/05/27 06:48:27;;;;;;;6.97;2.28;;;;;;;35.66;21.52;99440.72;5093913;28;20028;-48
2022/05/27 06:50:53;;;;;;;16.52;2.60;;;;;;;35.79;21.38;99437.56;5093881;28;20067;-48
2022/05/27 06:53:19;;;;;;;7.75;3.35;;;;;;;36.47;20.99;99440.41;5093770;28;20020;-47
2022/05/27 06:55:52;;;;;;;9.55;2.13;;;;;;;36.99;20.13;99433.75;5093813;28;20032;-48
2022/05/27 06:58:18;;;;;;;3.97;1.58;;;;;;;37.41;19.55;99429.47;5093670;28;20024;-47
2022/05/27 07:00:44;;;;;;;11.95;2.35;;;;;;;37.77;19.24;99439.16;5093672;28;20072;-48
2022/05/27 07:03:10;;;;;;;5.88;1.60;;;;;;;38.39;18.95;99436.25;5092011;28;20028;-48
2022/05/27 07:05:36;;;;;;;11.23;1.75;;;;;;;38.86;18.61;99434.16;5093537;28;20034;-48
2022/05/27 07:08:06;;;;;;;7.50;1.88;;;;;;;38.72;18.32;99427.34;5093469;28;20016;-48
2022/05/27 07:10:32;;;;;;;11.38;1.67;;;;;;;38.32;18.82;99420.50;5093330;28;20081;-49
2022/05/27 07:13:02;;;;;;;7.05;1.80;;;;;;;38.16;18.30;99422.59;5092080;28;20058;-48
2022/05/27 07:15:29;;;;;;;8.63;1.48;;;;;;;38.42;18.77;99427.31;5093425;28;20093;-47
2022/05/27 07:17:56;;;;;;;4.03;1.42;;;;;;;38.38;18.49;99428.41;5093430;28;20028;-49
2022/05/27 07:20:23;;;;;;;6.63;1.63;;;;;;;37.81;18.64;99428.25;5093303;28;20024;-50
2022/05/27 07:22:49;;;;;;;9.88;1.73;;;;;;;37.25;19.05;99419.44;5091991;28;20024;-49
2022/05/27 07:25:16;;;;;;;6.10;1.80;;;;;;;36.76;19.87;99423.50;5093233;28;20031;-49
2022/05/27 07:27:42;;;;;;;12.60;2.67;;;;;;;36.00;20.44;99422.88;5093167;28;20717;-49
2022/05/27 07:30:09;;;;;;;7.40;1.80;;;;;;;35.29;21.38;99419.06;5093070;28;20040;-49
2022/05/27 07:32:36;;;;;;;11.18;1.38;;;;;;;34.85;21.75;99429.88;5091746;28;20024;-48
2022/05/27 07:35:05;;;;;;;8.35;1.77;;;;;;;34.09;22.14;99430.22;5093021;28;20023;-49
2022/05/27 07:37:31;;;;;;;8.02;1.77;;;;;;;33.73;22.77;99429.03;5092919;28;20494;-47
2022/05/27 07:40:00;;;;;;;8.43;1.75;;;;;;;33.61;23.31;99429.81;5091612;28;20027;-48
2022/05/27 07:42:25;;;;;;;14.80;2.30;;;;;;;33.81;23.17;99421.91;5092851;28;20028;-49
2022/05/27 07:44:51;;;;;;;8.98;1.67;;;;;;;34.38;22.88;99423.78;5092808;28;20444;-48
2022/05/27 07:47:17;;;;;;;14.10;1.90;;;;;;;35.03;22.02;99412.06;5091476;28;20566;-49
2022/05/27 07:49:44;;;;;;;3.10;1.30;;;;;;;35.36;21.07;99411.88;5091441;28;20363;-50
2022/05/27 07:52:10;;;;;;;8.85;1.67;;;;;;;35.72;20.91;99422.97;5092607;28;20127;-49
2022/05/27 07:54:37;;;;;;;10.60;2.10;;;;;;;36.06;20.78;99416.00;5091390;28;20059;-49
2022/05/27 07:57:23;;;;;;;12.60;1.98;;;;;;;36.87;20.20;99417.47;5091335;28;20035;-48
2022/05/27 07:59:52;;;;;;;14.88;2.00;;;;;;;37.65;18.88;99410.00;5092831;28;20104;-49
2022/05/27 08:02:18;;;;;;;23.40;1.90;;;;;;;37.97;18.73;99407.81;5092529;28;20051;-48
2022/05/27 08:04:44;;;;;;;7.28;1.70;;;;;;;38.66;18.55;99411.59;5092474;28;20048;-48
2022/05/27 08:07:10;;;;;;;8.35;2.03;;;;;;;38.87;17.91;99409.09;5092438;28;20020;-48
2022/05/27 08:09:36;;;;;;;13.75;2.22;;;;;;;38.67;18.29;99411.19;5092368;28;20020;-49
2022/05/27 08:12:02;;;;;;;7.25;1.80;;;;;;;38.70;18.24;99401.44;5092264;28;20024;-49
2022/05/27 08:14:27;;;;;;;10.38;2.28;;;;;;;38.98;17.78;99397.47;5090359;28;20484;-47
2022/05/27 08:16:53;;;;;;;9.35;2.22;;;;;;;39.30;17.69;99393.16;5092272;28;20040;-49
2022/05/27 08:19:19;;;;;;;20.08;4.53;;;;;;;39.24;17.75;99393.84;5090986;28;20028;-48
2022/05/27 08:21:45;;;;;;;10.73;2.90;;;;;;;39.25;17.73;99398.19;5092183;28;20032;-47
2022/05/27 08:24:10;;;;;;;13.60;2.58;;;;;;;39.36;17.74;99388.09;5092193;28;20024;-48
2022/05/27 08:26:38;;;;;;;9.23;2.75;;;;;;;39.32;17.38;99387.25;5090846;28;20373;-47
2022/05/27 08:29:04;;;;;;;10.90;2.55;;;;;;;39.11;17.46;99383.13;5092110;28;20075;-47
2022/05/27 08:31:29;;;;;;;5.30;1.30;;;;;;;38.79;17.81;99388.22;5091849;28;20509;-49
2022/05/27 08:39:26;;;;;;;3.67;1.23;;;;;;;37.74;18.44;99385.09;5092334;28;20104;-47
2022/05/27 08:42:04;;;;;;;6.82;1.20;;;;;;;37.73;18.44;99380.75;5091892;28;20036;-49
2022/05/27 08:45:01;;;;;;;4.95;1.20;;;;;;;37.55;18.65;99386.72;5092218;28;20054;-49
2022/05/27 08:47:42;;;;;;;5.05;1.70;;;;;;;36.57;18.80;99369.53;5049283;28;20062;-48
2022/05/27 08:50:13;;;;;;;4.85;1.13;;;;;;;36.14;19.88;99381.41;5049347;28;20033;-49
2022/05/27 08:52:44;;;;;;;5.20;1.40;;;;;;;36.34;19.57;99383.09;5049369;28;20040;-49
2022/05/27 09:01:20;;;;;;;12.77;2.20;;;;;;;37.40;19.26;99371.19;5049618;28;20431;-48
2022/05/27 09:04:02;;;;;;;5.18;1.45;;;;;;;37.40;19.16;99370.41;5049320;28;20021;-48
2022/05/27 09:06:39;;;;;;;3.85;1.10;;;;;;;37.50;18.90;99378.81;5032531;28;20064;-48
2022/05/27 09:09:09;;;;;;;8.88;1.58;;;;;;;37.57;18.80;99378.16;5049253;28;20041;-47
2022/05/27 09:11:50;;;;;;;4.85;0.80;;;;;;;38.11;18.29;99366.16;5032386;28;20037;-48
2022/05/27 09:14:24;;;;;;;4.72;1.65;;;;;;;38.36;17.59;99366.50;5032580;28;20037;-47
2022/05/27 09:17:10;;;;;;;4.90;1.13;;;;;;;38.58;17.61;99353.09;5049157;28;20041;-46
2022/05/27 09:19:48;;;;;;;6.22;1.33;;;;;;;38.26;18.09;99356.16;5049273;28;20072;-47
2022/05/27 09:22:49;;;;;;;3.47;0.80;;;;;;;38.35;17.57;99353.97;5049181;28;20032;-47
2022/05/27 09:25:21;;;;;;;6.15;1.08;;;;;;;38.30;18.00;99346.03;5086570;28;20056;-47
2022/05/27 09:28:10;;;;;;;4.78;1.23;;;;;;;37.64;18.51;99341.88;5095551;28;20028;-48
2022/05/27 09:30:37;;;;;;;4.55;0.98;;;;;;;38.15;18.38;99349.72;5093947;28;20138;-48
2022/05/27 09:33:07;;;;;;;4.70;0.95;;;;;;;38.61;18.11;99359.78;5094192;28;20142;-48
2022/05/27 09:35:36;;;;;;;4.93;1.00;;;;;;;38.81;17.95;99357.66;5095369;28;20505;-48
2022/05/27 09:38:06;;;;;;;3.33;0.80;;;;;;;39.20;17.23;99346.34;5095348;28;20392;-47
2022/05/27 09:40:46;;;;;;;6.47;0.80;;;;;;;39.51;17.53;99365.09;5093935;28;20027;-49
2022/05/27 09:43:33;;;;;;;5.85;1.27;;;;;;;39.48;17.31;99356.84;5095256;28;20175;-49
2022/05/27 09:46:02;;;;;;;2.55;1.05;;;;;;;39.92;16.73;99359.59;5095251;28;20034;-48
2022/05/27 09:48:28;;;;;;;3.25;0.70;;;;;;;39.97;16.67;99354.91;5095072;28;20035;-47
2022/05/27 09:50:57;;;;;;;1.50;0.65;;;;;;;38.25;17.88;99348.31;5095085;28;20489;-49
2022/05/27 09:53:31;;;;;;;3.65;0.77;;;;;;;36.95;18.79;99351.56;5094968;28;20512;-49
2022/05/27 09:56:05;;;;;;;1.20;0.50;;;;;;;36.72;19.05;99348.75;5095014;28;20028;-47
2022/05/27 09:58:42;;;;;;;;;;;;;;;37.08;19.46;99346.72;5095401;28;20105;-47
2022/05/27 10:01:23;;;;;;;4.93;1.17;;;;;;;37.39;18.65;99344.97;5094874;28;19915;-48
2022/05/27 10:04:04;;;;;;;5.60;0.95;;;;;;;37.78;18.82;99348.38;5094774;28;20028;-47
2022/05/27 10:06:34;;;;;;;5.40;0.55;;;;;;;38.06;17.84;99343.75;5094784;28;20068;-47
2022/05/27 10:09:03;;;;;;;6.30;0.82;;;;;;;38.19;17.86;99330.59;5094714;28;20055;-48
2022/05/27 10:11:48;;;;;;;2.60;0.90;;;;;;;38.09;18.10;99334.75;5093263;28;20024;-49
2022/05/27 10:14:28;;;;;;;5.05;1.17;;;;;;;37.67;18.14;99332.94;5093397;28;20111;-49
2022/05/27 10:17:09;;;;;;;2.08;0.70;;;;;;;37.48;18.70;99340.03;5094515;28;20050;-49
2022/05/27 10:19:40;;;;;;;7.72;1.05;;;;;;;37.64;18.98;99330.94;5094503;28;20062;-48
2022/05/27 10:22:20;;;;;;;2.78;0.90;;;;;;;37.86;18.17;99335.59;5094475;28;20036;-50
2022/05/27 10:24:59;;;;;;;4.18;1.17;;;;;;;38.19;18.35;99336.88;5094524;28;20047;-50
2022/05/27 10:27:44;;;;;;;3.47;0.93;;;;;;;38.88;17.78;99322.09;5093145;28;20077;-50
2022/05/27 10:30:26;;;;;;;1.35;0.65;;;;;;;38.78;17.69;99329.03;5094280;28;20493;-50
2022/05/27 10:32:53;;;;;;;2.50;0.60;;;;;;;38.65;18.32;99333.97;5092936;28;20114;-49
2022/05/27 10:35:29;;;;;;;1.10;0.50;;;;;;;39.07;17.62;99319.16;5092876;28;20044;-48
2022/05/27 10:38:32;;;;;;;4.90;1.15;;;;;;;38.86;17.33;99319.72;5093498;28;20060;-48
2022/05/27 10:41:14;;;;;;;4.47;1.00;;;;;;;38.43;18.09;99326.59;5092839;28;20036;-48
2022/05/27 10:43:59;;;;;;;6.90;1.02;;;;;;;37.76;18.72;99319.78;5092925;28;20028;-47
2022/05/27 10:46:32;;;;;;;2.72;0.70;;;;;;;37.65;19.28;99314.13;5094297;28;20397;-47
2022/05/27 10:49:20;;;;;;;3.60;0.40;;;;;;;37.74;18.89;99320.13;5094107;28;20056;-47
2022/05/27 10:51:53;;;;;;;2.53;0.52;;;;;;;36.63;19.79;99318.13;5093882;28;20036;-48
2022/05/27 10:54:49;;;;;;;3.78;1.23;;;;;;;34.81;21.36;99326.13;5093996;28;20512;-46
2022/05/27 11:03:45;;;;;;;6.05;0.90;;;;;;;35.71;20.98;99312.13;5093711;28;20136;-48
2022/05/27 11:06:35;;;;;;;2.72;0.60;;;;;;;36.05;20.54;99310.56;5093708;28;20034;-48
2022/05/27 11:09:12;;;;;;;3.22;0.60;;;;;;;35.89;20.91;99304.34;5093597;28;20104;-47
2022/05/27 11:11:46;;;;;;;2.08;0.68;;;;;;;35.73;20.89;99307.88;5093479;28;20035;-48
2022/05/27 11:17:38;;;;;;;3.53;0.60;;;;;;;35.77;20.88;99297.06;5093752;28;20108;-48
2022/05/27 11:20:36;;;;;;;3.53;0.63;;;;;;;36.05;20.92;99290.66;5093374;28;20410;-47
2022/05/27 11:23:31;;;;;;;2.33;0.40;;;;;;;36.41;20.20;99288.72;5092073;28;20497;-48
2022/05/27 11:26:17;;;;;;;0.68;0.40;;;;;;;36.62;20.10;99270.00;5093341;28;20035;-47
2022/05/27 11:28:58;;;;;;;0.88;0.47;;;;;;;36.70;20.27;99284.63;5093298;28;20020;-48
2022/05/27 11:31:52;;;;;;;2.42;0.57;;;;;;;36.35;20.30;99280.00;5092799;28;20036;-46
2022/05/27 11:34:48;;;;;;;3.25;0.50;;;;;;;35.82;20.90;99269.47;5093062;28;20038;-48
2022/05/27 11:37:32;;;;;;;3.20;0.60;;;;;;;35.59;21.31;99272.03;5093097;28;20028;-46
2022/05/27 11:40:41;;;;;;;4.03;0.63;;;;;;;35.47;21.21;99278.38;5093036;28;20032;-49
2022/05/27 11:43:28;;;;;;;3.92;0.65;;;;;;;35.14;21.31;99268.56;5090995;28;20028;-49
2022/05/27 11:46:18;;;;;;;4.65;0.70;;;;;;;35.15;21.74;99275.63;5093076;28;20055;-49
2022/05/27 11:49:06;;;;;;;3.10;0.60;;;;;;;35.20;21.60;99264.47;5091914;28;20508;-49
2022/05/27 11:51:55;;;;;;;1.88;0.70;;;;;;;35.30;21.76;99265.88;5092737;28;20053;-49
2022/05/27 11:54:44;;;;;;;4.40;0.70;;;;;;;35.00;22.13;99265.47;5092749;28;20032;-47
2022/05/27 11:57:22;;;;;;;3.13;0.70;;;;;;;35.17;22.18;99251.50;5092745;28;20055;-47
2022/05/27 12:00:13;;;;;;;1.83;0.63;;;;;;;35.25;21.74;99251.69;5092669;28;20032;-47
2022/05/27 12:02:53;;;;;;;2.78;0.77;;;;;;;35.63;21.16;99244.81;5055405;28;20032;-48
2022/05/27 12:05:31;;;;;;;3.80;0.95;;;;;;;35.53;21.14;99249.66;5092518;28;20047;-47
2022/05/27 12:08:10;;;;;;;3.60;0.50;;;;;;;35.39;21.46;99252.81;5092587;28;20574;-48
2022/05/27 12:10:47;;;;;;;6.22;0.82;;;;;;;35.26;22.07;99234.97;5092459;28;20035;-46
2022/05/27 12:13:37;;;;;;;3.70;0.65;;;;;;;35.07;21.69;99245.75;5092920;28;20051;-47
2022/05/27 12:16:31;;;;;;;4.03;1.27;;;;;;;34.86;21.91;99246.00;5092434;28;20036;-46
2022/05/27 12:19:02;;;;;;;1.90;0.70;;;;;;;34.68;22.32;99246.31;5090493;28;20040;-47
2022/05/27 12:21:35;;;;;;;2.58;0.63;;;;;;;34.74;22.75;99241.41;5092259;28;20517;-46
2022/05/27 12:24:16;;;;;;;2.40;0.50;;;;;;;34.96;22.82;99240.81;5092359;28;20031;-47
2022/05/27 12:26:42;;;;;;;1.58;0.77;;;;;;;34.88;22.16;99232.81;5090910;28;20039;-48
2022/05/27 12:29:12;;;;;;;2.00;0.65;;;;;;;34.76;22.32;99234.47;5092194;28;20056;-48
2022/05/27 12:31:39;;;;;;;4.03;0.88;;;;;;;34.65;22.00;99227.91;5091790;28;20071;-47
2022/05/27 12:34:27;;;;;;;1.75;0.55;;;;;;;33.99;22.84;99232.63;5092116;28;20055;-47
2022/05/27 12:37:01;;;;;;;4.78;1.05;;;;;;;33.63;23.36;99223.38;5092053;28;20031;-47